Terminal Aerodrome Forecast
Issued by NWS

Home | Current Version | Previous Version | Text Only | Print | Product List | Glossary On
Versions: 1 2 3 4 5 6 7 8 9 10 11 12 13
000
FTUS45 KVEF 041738
TAFDAG
TAF
KDAG 041738Z 0418/0518 29010KT P6SM SCT250
     FM042100 06007KT P6SM SCT120
     FM050200 25014KT P6SM SCT120
     FM050600 28010KT P6SM SCT120=

USA.gov is the U.S. government's official web portal to all federal, state and local government web resources and services.